Duck Lake, Canada
Current Conditions -  °F | °C
As of 6:00 AM on Wednesday 26 Nov 2014 (Local Time) from CYPA Reporting Station
Ice Pellets Ice Pellets  
Wind Chill: -32°   Ceiling: Unl
Heat Index: -32°   Visibility: 1.5mi
Dew Point: -35°   Wind: 0mph
Humidity: 76%   Direction: NA
Pressure: 30.42"   Gusts: NA
Location:  52.8°N, 106.22°W
Report Text: CYPA 261200Z 00000KT 1 1/2SM IC SKC M32/M35 A3042 RMK SNW CVR/MUCH LOOSE SLP355
Loading
Personal Weather Stations






























Interactive Weather Map New forecast layout! Learn more

10-Day Weather Forecast

Advertisements
Track Severe Weather on mobile